sensor_id;sensor_type;location;lat;lon;timestamp;P1;durP1;ratioP1;P2;durP2;ratioP2
20567;SDS011;10442;49.932;11.592;2023-11-19T00:00:10;2.90;;;2.70;;
20567;SDS011;10442;49.932;11.592;2023-11-19T00:02:39;2.65;;;2.45;;
20567;SDS011;10442;49.932;11.592;2023-11-19T00:05:10;3.25;;;2.72;;
20567;SDS011;10442;49.932;11.592;2023-11-19T00:07:41;2.85;;;2.65;;
20567;SDS011;10442;49.932;11.592;2023-11-19T00:10:09;2.90;;;2.70;;
20567;SDS011;10442;49.932;11.592;2023-11-19T00:12:42;2.83;;;2.70;;
20567;SDS011;10442;49.932;11.592;2023-11-19T00:15:18;4.30;;;2.80;;
20567;SDS011;10442;49.932;11.592;2023-11-19T00:17:47;2.88;;;2.67;;
20567;SDS011;10442;49.932;11.592;2023-11-19T00:20:17;3.28;;;3.08;;
20567;SDS011;10442;49.932;11.592;2023-11-19T00:22:46;2.08;;;1.92;;
20567;SDS011;10442;49.932;11.592;2023-11-19T00:25:17;2.15;;;2.05;;
20567;SDS011;10442;49.932;11.592;2023-11-19T00:27:45;2.70;;;2.50;;
20567;SDS011;10442;49.932;11.592;2023-11-19T00:30:13;2.72;;;2.60;;
20567;SDS011;10442;49.932;11.592;2023-11-19T00:32:42;2.47;;;2.30;;
20567;SDS011;10442;49.932;11.592;2023-11-19T00:35:09;3.45;;;2.25;;
20567;SDS011;10442;49.932;11.592;2023-11-19T00:37:37;2.05;;;1.95;;
20567;SDS011;10442;49.932;11.592;2023-11-19T00:40:05;3.05;;;2.50;;
20567;SDS011;10442;49.932;11.592;2023-11-19T00:42:34;1.83;;;1.73;;
20567;SDS011;10442;49.932;11.592;2023-11-19T00:45:01;1.80;;;1.70;;
20567;SDS011;10442;49.932;11.592;2023-11-19T00:47:29;2.28;;;2.17;;
20567;SDS011;10442;49.932;11.592;2023-11-19T00:49:58;2.30;;;2.15;;
20567;SDS011;10442;49.932;11.592;2023-11-19T00:52:25;2.13;;;1.88;;
20567;SDS011;10442;49.932;11.592;2023-11-19T00:54:53;2.50;;;2.30;;
20567;SDS011;10442;49.932;11.592;2023-11-19T00:57:21;2.15;;;2.05;;
20567;SDS011;10442;49.932;11.592;2023-11-19T00:59:48;3.15;;;2.95;;
20567;SDS011;10442;49.932;11.592;2023-11-19T01:02:16;2.67;;;2.58;;
20567;SDS011;10442;49.932;11.592;2023-11-19T01:04:44;4.50;;;2.75;;
20567;SDS011;10442;49.932;11.592;2023-11-19T01:07:12;2.80;;;2.60;;
20567;SDS011;10442;49.932;11.592;2023-11-19T01:09:43;1.80;;;1.70;;
20567;SDS011;10442;49.932;11.592;2023-11-19T01:12:10;1.77;;;1.67;;
20567;SDS011;10442;49.932;11.592;2023-11-19T01:14:38;2.17;;;1.90;;
20567;SDS011;10442;49.932;11.592;2023-11-19T01:17:06;1.95;;;1.85;;
20567;SDS011;10442;49.932;11.592;2023-11-19T01:19:34;1.60;;;1.50;;
20567;SDS011;10442;49.932;11.592;2023-11-19T01:22:02;1.40;;;1.35;;
20567;SDS011;10442;49.932;11.592;2023-11-19T01:24:30;1.67;;;1.58;;
20567;SDS011;10442;49.932;11.592;2023-11-19T01:26:58;1.02;;;1.02;;
20567;SDS011;10442;49.932;11.592;2023-11-19T01:29:28;1.17;;;1.17;;
20567;SDS011;10442;49.932;11.592;2023-11-19T01:31:56;1.70;;;1.60;;
20567;SDS011;10442;49.932;11.592;2023-11-19T01:34:23;1.58;;;1.30;;
20567;SDS011;10442;49.932;11.592;2023-11-19T01:36:51;1.75;;;1.65;;
20567;SDS011;10442;49.932;11.592;2023-11-19T01:39:18;1.55;;;1.45;;
20567;SDS011;10442;49.932;11.592;2023-11-19T01:41:47;1.80;;;1.70;;
20567;SDS011;10442;49.932;11.592;2023-11-19T01:44:14;2.00;;;1.90;;
20567;SDS011;10442;49.932;11.592;2023-11-19T01:46:44;4.22;;;1.73;;
20567;SDS011;10442;49.932;11.592;2023-11-19T01:49:13;2.03;;;1.88;;
20567;SDS011;10442;49.932;11.592;2023-11-19T01:51:43;2.05;;;1.95;;
20567;SDS011;10442;49.932;11.592;2023-11-19T01:54:12;1.83;;;1.73;;
20567;SDS011;10442;49.932;11.592;2023-11-19T01:56:39;1.63;;;1.52;;
20567;SDS011;10442;49.932;11.592;2023-11-19T01:59:09;1.27;;;1.20;;
20567;SDS011;10442;49.932;11.592;2023-11-19T02:01:41;1.40;;;1.30;;
20567;SDS011;10442;49.932;11.592;2023-11-19T02:04:10;1.27;;;1.27;;
20567;SDS011;10442;49.932;11.592;2023-11-19T02:06:40;1.40;;;1.30;;
20567;SDS011;10442;49.932;11.592;2023-11-19T02:09:09;1.35;;;1.35;;
20567;SDS011;10442;49.932;11.592;2023-11-19T02:11:39;1.20;;;1.10;;
20567;SDS011;10442;49.932;11.592;2023-11-19T02:14:07;1.92;;;1.83;;
20567;SDS011;10442;49.932;11.592;2023-11-19T02:16:35;1.70;;;1.60;;
20567;SDS011;10442;49.932;11.592;2023-11-19T02:19:02;2.45;;;1.42;;
20567;SDS011;10442;49.932;11.592;2023-11-19T02:21:33;0.98;;;0.98;;
20567;SDS011;10442;49.932;11.592;2023-11-19T02:24:01;0.80;;;0.80;;
20567;SDS011;10442;49.932;11.592;2023-11-19T02:29:23;0.93;;;0.93;;
20567;SDS011;10442;49.932;11.592;2023-11-19T02:31:50;1.15;;;1.15;;
20567;SDS011;10442;49.932;11.592;2023-11-19T02:34:18;1.65;;;0.93;;
20567;SDS011;10442;49.932;11.592;2023-11-19T02:36:45;1.73;;;1.58;;
20567;SDS011;10442;49.932;11.592;2023-11-19T02:39:14;1.20;;;1.20;;
20567;SDS011;10442;49.932;11.592;2023-11-19T02:41:41;1.42;;;1.42;;
20567;SDS011;10442;49.932;11.592;2023-11-19T02:44:09;1.20;;;1.10;;
20567;SDS011;10442;49.932;11.592;2023-11-19T02:46:37;1.30;;;1.23;;
20567;SDS011;10442;49.932;11.592;2023-11-19T02:49:04;0.70;;;0.70;;
20567;SDS011;10442;49.932;11.592;2023-11-19T02:51:33;1.20;;;1.20;;
20567;SDS011;10442;49.932;11.592;2023-11-19T02:54:01;1.10;;;1.10;;
20567;SDS011;10442;49.932;11.592;2023-11-19T02:56:30;1.48;;;1.38;;
20567;SDS011;10442;49.932;11.592;2023-11-19T02:59:01;0.88;;;0.88;;
20567;SDS011;10442;49.932;11.592;2023-11-19T03:01:41;0.77;;;0.77;;
20567;SDS011;10442;49.932;11.592;2023-11-19T03:04:11;0.88;;;0.88;;
20567;SDS011;10442;49.932;11.592;2023-11-19T03:06:39;1.10;;;1.02;;
20567;SDS011;10442;49.932;11.592;2023-11-19T03:09:06;0.80;;;0.80;;
20567;SDS011;10442;49.932;11.592;2023-11-19T03:11:37;0.80;;;0.80;;
20567;SDS011;10442;49.932;11.592;2023-11-19T03:14:05;0.70;;;0.70;;
20567;SDS011;10442;49.932;11.592;2023-11-19T03:16:33;0.80;;;0.80;;
20567;SDS011;10442;49.932;11.592;2023-11-19T03:19:01;0.68;;;0.68;;
20567;SDS011;10442;49.932;11.592;2023-11-19T03:21:31;0.70;;;0.70;;
20567;SDS011;10442;49.932;11.592;2023-11-19T03:23:58;1.00;;;1.00;;
20567;SDS011;10442;49.932;11.592;2023-11-19T03:26:27;0.77;;;0.77;;
20567;SDS011;10442;49.932;11.592;2023-11-19T03:28:55;0.70;;;0.70;;
20567;SDS011;10442;49.932;11.592;2023-11-19T03:31:24;1.00;;;1.00;;
20567;SDS011;10442;49.932;11.592;2023-11-19T03:33:52;0.70;;;0.70;;
20567;SDS011;10442;49.932;11.592;2023-11-19T03:36:23;1.10;;;0.93;;
20567;SDS011;10442;49.932;11.592;2023-11-19T03:38:51;0.60;;;0.60;;
20567;SDS011;10442;49.932;11.592;2023-11-19T03:41:19;0.75;;;0.75;;
20567;SDS011;10442;49.932;11.592;2023-11-19T03:43:47;0.50;;;0.50;;
20567;SDS011;10442;49.932;11.592;2023-11-19T03:46:16;0.63;;;0.63;;
20567;SDS011;10442;49.932;11.592;2023-11-19T03:48:48;0.73;;;0.73;;
20567;SDS011;10442;49.932;11.592;2023-11-19T03:51:17;0.90;;;0.90;;
20567;SDS011;10442;49.932;11.592;2023-11-19T03:53:45;0.57;;;0.57;;
20567;SDS011;10442;49.932;11.592;2023-11-19T03:56:13;1.20;;;1.20;;
20567;SDS011;10442;49.932;11.592;2023-11-19T03:58:40;0.80;;;0.80;;
20567;SDS011;10442;49.932;11.592;2023-11-19T04:01:13;0.55;;;0.55;;
20567;SDS011;10442;49.932;11.592;2023-11-19T04:03:41;0.90;;;0.90;;
20567;SDS011;10442;49.932;11.592;2023-11-19T04:06:11;0.60;;;0.60;;
20567;SDS011;10442;49.932;11.592;2023-11-19T04:08:39;0.57;;;0.57;;
20567;SDS011;10442;49.932;11.592;2023-11-19T04:11:06;0.60;;;0.60;;
20567;SDS011;10442;49.932;11.592;2023-11-19T04:13:35;0.77;;;0.77;;
20567;SDS011;10442;49.932;11.592;2023-11-19T04:16:04;0.70;;;0.70;;
20567;SDS011;10442;49.932;11.592;2023-11-19T04:18:32;0.70;;;0.70;;
20567;SDS011;10442;49.932;11.592;2023-11-19T04:21:01;0.85;;;0.85;;
20567;SDS011;10442;49.932;11.592;2023-11-19T04:23:28;1.02;;;0.90;;
20567;SDS011;10442;49.932;11.592;2023-11-19T04:25:56;0.52;;;0.52;;
20567;SDS011;10442;49.932;11.592;2023-11-19T04:28:37;0.55;;;0.55;;
20567;SDS011;10442;49.932;11.592;2023-11-19T04:31:04;0.80;;;0.80;;
20567;SDS011;10442;49.932;11.592;2023-11-19T04:33:33;0.70;;;0.70;;
20567;SDS011;10442;49.932;11.592;2023-11-19T04:36:00;0.60;;;0.60;;
20567;SDS011;10442;49.932;11.592;2023-11-19T04:38:29;1.00;;;0.70;;
20567;SDS011;10442;49.932;11.592;2023-11-19T04:40:57;0.73;;;0.73;;
20567;SDS011;10442;49.932;11.592;2023-11-19T04:43:25;0.80;;;0.80;;
20567;SDS011;10442;49.932;11.592;2023-11-19T04:45:52;0.90;;;0.90;;
20567;SDS011;10442;49.932;11.592;2023-11-19T04:48:20;1.50;;;1.23;;
20567;SDS011;10442;49.932;11.592;2023-11-19T04:50:48;1.02;;;1.02;;
20567;SDS011;10442;49.932;11.592;2023-11-19T04:53:17;0.93;;;0.93;;
20567;SDS011;10442;49.932;11.592;2023-11-19T04:55:44;0.80;;;0.80;;
20567;SDS011;10442;49.932;11.592;2023-11-19T04:58:12;1.05;;;1.05;;
20567;SDS011;10442;49.932;11.592;2023-11-19T05:00:41;1.13;;;1.02;;
20567;SDS011;10442;49.932;11.592;2023-11-19T05:03:08;0.80;;;0.80;;
20567;SDS011;10442;49.932;11.592;2023-11-19T05:05:36;0.98;;;0.98;;
20567;SDS011;10442;49.932;11.592;2023-11-19T05:08:04;1.00;;;1.00;;
20567;SDS011;10442;49.932;11.592;2023-11-19T05:10:32;0.90;;;0.85;;
20567;SDS011;10442;49.932;11.592;2023-11-19T05:13:00;1.00;;;1.00;;
20567;SDS011;10442;49.932;11.592;2023-11-19T05:15:28;0.57;;;0.57;;
20567;SDS011;10442;49.932;11.592;2023-11-19T05:17:56;0.98;;;0.98;;
20567;SDS011;10442;49.932;11.592;2023-11-19T05:20:23;1.55;;;0.80;;
20567;SDS011;10442;49.932;11.592;2023-11-19T05:22:51;1.00;;;1.00;;
20567;SDS011;10442;49.932;11.592;2023-11-19T05:25:20;1.02;;;0.93;;
20567;SDS011;10442;49.932;11.592;2023-11-19T05:27:48;1.65;;;0.88;;
20567;SDS011;10442;49.932;11.592;2023-11-19T05:30:15;0.70;;;0.63;;
20567;SDS011;10442;49.932;11.592;2023-11-19T05:32:43;0.77;;;0.77;;
20567;SDS011;10442;49.932;11.592;2023-11-19T05:35:11;1.05;;;0.90;;
20567;SDS011;10442;49.932;11.592;2023-11-19T05:37:40;0.85;;;0.85;;
20567;SDS011;10442;49.932;11.592;2023-11-19T05:40:08;0.82;;;0.82;;
20567;SDS011;10442;49.932;11.592;2023-11-19T05:42:42;1.10;;;1.10;;
20567;SDS011;10442;49.932;11.592;2023-11-19T05:45:11;1.08;;;1.08;;
20567;SDS011;10442;49.932;11.592;2023-11-19T05:47:39;1.30;;;1.20;;
20567;SDS011;10442;49.932;11.592;2023-11-19T05:50:06;1.05;;;1.05;;
20567;SDS011;10442;49.932;11.592;2023-11-19T05:52:35;0.95;;;0.95;;
20567;SDS011;10442;49.932;11.592;2023-11-19T05:55:03;1.00;;;1.00;;
20567;SDS011;10442;49.932;11.592;2023-11-19T05:57:37;0.90;;;0.90;;
20567;SDS011;10442;49.932;11.592;2023-11-19T06:00:07;1.30;;;1.20;;
20567;SDS011;10442;49.932;11.592;2023-11-19T06:02:40;1.02;;;1.02;;
20567;SDS011;10442;49.932;11.592;2023-11-19T06:05:07;0.77;;;0.77;;
20567;SDS011;10442;49.932;11.592;2023-11-19T06:07:36;1.10;;;1.10;;
20567;SDS011;10442;49.932;11.592;2023-11-19T06:10:06;1.30;;;1.20;;
20567;SDS011;10442;49.932;11.592;2023-11-19T06:12:36;1.00;;;1.00;;
20567;SDS011;10442;49.932;11.592;2023-11-19T06:15:05;1.10;;;1.10;;
20567;SDS011;10442;49.932;11.592;2023-11-19T06:17:35;1.25;;;1.00;;
20567;SDS011;10442;49.932;11.592;2023-11-19T06:20:04;1.00;;;1.00;;
20567;SDS011;10442;49.932;11.592;2023-11-19T06:22:32;0.98;;;0.98;;
20567;SDS011;10442;49.932;11.592;2023-11-19T06:24:59;1.17;;;1.17;;
20567;SDS011;10442;49.932;11.592;2023-11-19T06:27:27;1.30;;;1.20;;
20567;SDS011;10442;49.932;11.592;2023-11-19T06:29:54;1.13;;;1.13;;
20567;SDS011;10442;49.932;11.592;2023-11-19T06:32:22;1.05;;;1.05;;
20567;SDS011;10442;49.932;11.592;2023-11-19T06:34:49;1.08;;;1.08;;
20567;SDS011;10442;49.932;11.592;2023-11-19T06:37:17;0.75;;;0.75;;
20567;SDS011;10442;49.932;11.592;2023-11-19T06:39:45;1.08;;;1.08;;
20567;SDS011;10442;49.932;11.592;2023-11-19T06:42:12;1.10;;;1.10;;
20567;SDS011;10442;49.932;11.592;2023-11-19T06:44:40;1.20;;;1.13;;
20567;SDS011;10442;49.932;11.592;2023-11-19T06:47:07;2.05;;;1.10;;
20567;SDS011;10442;49.932;11.592;2023-11-19T06:49:35;0.85;;;0.85;;
20567;SDS011;10442;49.932;11.592;2023-11-19T06:52:03;0.98;;;0.98;;
20567;SDS011;10442;49.932;11.592;2023-11-19T06:54:31;1.05;;;1.05;;
20567;SDS011;10442;49.932;11.592;2023-11-19T06:56:58;1.20;;;1.20;;
20567;SDS011;10442;49.932;11.592;2023-11-19T06:59:26;1.77;;;1.38;;
20567;SDS011;10442;49.932;11.592;2023-11-19T07:01:53;1.17;;;1.17;;
20567;SDS011;10442;49.932;11.592;2023-11-19T07:04:21;1.40;;;1.30;;
20567;SDS011;10442;49.932;11.592;2023-11-19T07:06:49;1.40;;;1.30;;
20567;SDS011;10442;49.932;11.592;2023-11-19T07:09:16;1.40;;;1.35;;
20567;SDS011;10442;49.932;11.592;2023-11-19T07:11:43;0.85;;;0.85;;
20567;SDS011;10442;49.932;11.592;2023-11-19T07:14:12;1.02;;;1.02;;
20567;SDS011;10442;49.932;11.592;2023-11-19T07:16:39;0.90;;;0.90;;
20567;SDS011;10442;49.932;11.592;2023-11-19T07:19:07;0.95;;;0.95;;
20567;SDS011;10442;49.932;11.592;2023-11-19T07:21:35;0.80;;;0.80;;
20567;SDS011;10442;49.932;11.592;2023-11-19T07:24:06;0.75;;;0.75;;
20567;SDS011;10442;49.932;11.592;2023-11-19T07:26:34;1.13;;;1.10;;
20567;SDS011;10442;49.932;11.592;2023-11-19T07:29:01;0.80;;;0.80;;
20567;SDS011;10442;49.932;11.592;2023-11-19T07:31:29;0.60;;;0.60;;
20567;SDS011;10442;49.932;11.592;2023-11-19T07:33:56;1.00;;;0.90;;
20567;SDS011;10442;49.932;11.592;2023-11-19T07:36:24;0.90;;;0.60;;
20567;SDS011;10442;49.932;11.592;2023-11-19T07:38:51;0.57;;;0.57;;
20567;SDS011;10442;49.932;11.592;2023-11-19T07:41:20;0.60;;;0.60;;
20567;SDS011;10442;49.932;11.592;2023-11-19T07:43:47;0.52;;;0.52;;
20567;SDS011;10442;49.932;11.592;2023-11-19T07:46:15;0.75;;;0.75;;
20567;SDS011;10442;49.932;11.592;2023-11-19T07:48:42;0.70;;;0.70;;
20567;SDS011;10442;49.932;11.592;2023-11-19T07:51:10;0.50;;;0.50;;
20567;SDS011;10442;49.932;11.592;2023-11-19T07:53:40;0.57;;;0.57;;
20567;SDS011;10442;49.932;11.592;2023-11-19T07:56:09;0.50;;;0.50;;
20567;SDS011;10442;49.932;11.592;2023-11-19T07:58:37;0.57;;;0.57;;
20567;SDS011;10442;49.932;11.592;2023-11-19T08:01:05;0.60;;;0.50;;
20567;SDS011;10442;49.932;11.592;2023-11-19T08:03:34;0.43;;;0.43;;
20567;SDS011;10442;49.932;11.592;2023-11-19T08:06:03;0.43;;;0.43;;
20567;SDS011;10442;49.932;11.592;2023-11-19T08:08:31;0.40;;;0.40;;
20567;SDS011;10442;49.932;11.592;2023-11-19T08:11:00;0.50;;;0.50;;
20567;SDS011;10442;49.932;11.592;2023-11-19T08:13:29;0.40;;;0.40;;
20567;SDS011;10442;49.932;11.592;2023-11-19T08:15:57;0.30;;;0.30;;
20567;SDS011;10442;49.932;11.592;2023-11-19T08:18:28;0.40;;;0.40;;
20567;SDS011;10442;49.932;11.592;2023-11-19T08:20:55;0.60;;;0.57;;
20567;SDS011;10442;49.932;11.592;2023-11-19T08:23:25;0.40;;;0.40;;
20567;SDS011;10442;49.932;11.592;2023-11-19T08:25:52;0.60;;;0.60;;
20567;SDS011;10442;49.932;11.592;2023-11-19T08:28:20;0.85;;;0.85;;
20567;SDS011;10442;49.932;11.592;2023-11-19T08:30:48;1.17;;;0.98;;
20567;SDS011;10442;49.932;11.592;2023-11-19T08:33:15;1.08;;;1.08;;
20567;SDS011;10442;49.932;11.592;2023-11-19T08:35:44;0.95;;;0.95;;
20567;SDS011;10442;49.932;11.592;2023-11-19T08:38:12;1.00;;;1.00;;
20567;SDS011;10442;49.932;11.592;2023-11-19T08:40:40;1.00;;;1.00;;
20567;SDS011;10442;49.932;11.592;2023-11-19T08:43:08;0.75;;;0.75;;
20567;SDS011;10442;49.932;11.592;2023-11-19T08:45:35;1.33;;;1.23;;
20567;SDS011;10442;49.932;11.592;2023-11-19T08:48:03;1.10;;;1.02;;
20567;SDS011;10442;49.932;11.592;2023-11-19T08:50:31;1.23;;;1.20;;
20567;SDS011;10442;49.932;11.592;2023-11-19T08:52:59;1.20;;;1.20;;
20567;SDS011;10442;49.932;11.592;2023-11-19T08:55:26;1.40;;;1.30;;
20567;SDS011;10442;49.932;11.592;2023-11-19T08:57:54;1.27;;;1.20;;
20567;SDS011;10442;49.932;11.592;2023-11-19T09:00:21;1.67;;;1.58;;
20567;SDS011;10442;49.932;11.592;2023-11-19T09:02:49;1.20;;;1.20;;
20567;SDS011;10442;49.932;11.592;2023-11-19T09:05:17;1.83;;;1.65;;
20567;SDS011;10442;49.932;11.592;2023-11-19T09:07:44;1.75;;;1.65;;
20567;SDS011;10442;49.932;11.592;2023-11-19T09:10:12;1.90;;;1.80;;
20567;SDS011;10442;49.932;11.592;2023-11-19T09:12:39;1.30;;;1.30;;
20567;SDS011;10442;49.932;11.592;2023-11-19T09:15:07;1.50;;;1.40;;
20567;SDS011;10442;49.932;11.592;2023-11-19T09:17:37;1.40;;;1.40;;
20567;SDS011;10442;49.932;11.592;2023-11-19T09:20:05;1.90;;;1.80;;
20567;SDS011;10442;49.932;11.592;2023-11-19T09:22:33;3.05;;;1.70;;
20567;SDS011;10442;49.932;11.592;2023-11-19T09:25:00;2.03;;;1.92;;
20567;SDS011;10442;49.932;11.592;2023-11-19T09:27:28;1.67;;;1.58;;
20567;SDS011;10442;49.932;11.592;2023-11-19T09:29:55;1.80;;;1.70;;
20567;SDS011;10442;49.932;11.592;2023-11-19T09:32:25;1.52;;;1.42;;
20567;SDS011;10442;49.932;11.592;2023-11-19T09:34:54;1.65;;;1.30;;
20567;SDS011;10442;49.932;11.592;2023-11-19T09:37:22;1.52;;;1.42;;
20567;SDS011;10442;49.932;11.592;2023-11-19T09:39:49;1.30;;;1.30;;
20567;SDS011;10442;49.932;11.592;2023-11-19T09:42:17;1.20;;;1.20;;
20567;SDS011;10442;49.932;11.592;2023-11-19T09:44:44;1.30;;;1.20;;
20567;SDS011;10442;49.932;11.592;2023-11-19T09:47:14;1.00;;;1.00;;
20567;SDS011;10442;49.932;11.592;2023-11-19T09:49:44;0.93;;;0.93;;
20567;SDS011;10442;49.932;11.592;2023-11-19T09:52:11;0.98;;;0.98;;
20567;SDS011;10442;49.932;11.592;2023-11-19T09:54:39;0.95;;;0.95;;
20567;SDS011;10442;49.932;11.592;2023-11-19T09:57:07;0.70;;;0.70;;
20567;SDS011;10442;49.932;11.592;2023-11-19T09:59:38;1.35;;;1.00;;
20567;SDS011;10442;49.932;11.592;2023-11-19T10:02:07;0.85;;;0.85;;
20567;SDS011;10442;49.932;11.592;2023-11-19T10:04:35;1.77;;;1.10;;
20567;SDS011;10442;49.932;11.592;2023-11-19T10:07:05;1.48;;;1.38;;
20567;SDS011;10442;49.932;11.592;2023-11-19T10:09:32;2.40;;;1.15;;
20567;SDS011;10442;49.932;11.592;2023-11-19T10:12:01;1.17;;;1.17;;
20567;SDS011;10442;49.932;11.592;2023-11-19T10:14:29;1.05;;;1.05;;
20567;SDS011;10442;49.932;11.592;2023-11-19T10:16:58;1.10;;;1.10;;
20567;SDS011;10442;49.932;11.592;2023-11-19T10:19:31;1.30;;;1.17;;
20567;SDS011;10442;49.932;11.592;2023-11-19T10:22:05;0.88;;;0.82;;
20567;SDS011;10442;49.932;11.592;2023-11-19T10:24:33;1.08;;;0.98;;
20567;SDS011;10442;49.932;11.592;2023-11-19T10:27:08;1.05;;;0.95;;
20567;SDS011;10442;49.932;11.592;2023-11-19T10:29:37;1.38;;;1.15;;
20567;SDS011;10442;49.932;11.592;2023-11-19T10:32:07;0.88;;;0.88;;
20567;SDS011;10442;49.932;11.592;2023-11-19T10:35:04;1.05;;;0.95;;
20567;SDS011;10442;49.932;11.592;2023-11-19T10:37:32;1.25;;;0.95;;
20567;SDS011;10442;49.932;11.592;2023-11-19T10:40:02;2.35;;;0.98;;
20567;SDS011;10442;49.932;11.592;2023-11-19T10:42:32;1.02;;;1.02;;
20567;SDS011;10442;49.932;11.592;2023-11-19T10:44:59;0.75;;;0.75;;
20567;SDS011;10442;49.932;11.592;2023-11-19T10:47:27;2.00;;;0.70;;
20567;SDS011;10442;49.932;11.592;2023-11-19T10:50:00;2.72;;;1.20;;
20567;SDS011;10442;49.932;11.592;2023-11-19T10:52:28;2.35;;;1.00;;
20567;SDS011;10442;49.932;11.592;2023-11-19T10:54:56;0.85;;;0.85;;
20567;SDS011;10442;49.932;11.592;2023-11-19T10:57:29;1.35;;;1.25;;
20567;SDS011;10442;49.932;11.592;2023-11-19T11:00:01;0.90;;;0.90;;
20567;SDS011;10442;49.932;11.592;2023-11-19T11:02:30;1.48;;;1.30;;
20567;SDS011;10442;49.932;11.592;2023-11-19T11:05:02;0.95;;;0.90;;
20567;SDS011;10442;49.932;11.592;2023-11-19T11:07:33;1.20;;;1.10;;
20567;SDS011;10442;49.932;11.592;2023-11-19T11:10:07;1.13;;;1.02;;
20567;SDS011;10442;49.932;11.592;2023-11-19T11:12:37;1.80;;;1.38;;
20567;SDS011;10442;49.932;11.592;2023-11-19T11:15:06;1.67;;;1.13;;
20567;SDS011;10442;49.932;11.592;2023-11-19T11:17:35;1.85;;;1.30;;
20567;SDS011;10442;49.932;11.592;2023-11-19T11:20:05;1.10;;;1.10;;
20567;SDS011;10442;49.932;11.592;2023-11-19T11:22:42;1.77;;;1.10;;
20567;SDS011;10442;49.932;11.592;2023-11-19T11:25:28;1.55;;;1.40;;
20567;SDS011;10442;49.932;11.592;2023-11-19T11:28:07;1.85;;;1.50;;
20567;SDS011;10442;49.932;11.592;2023-11-19T11:31:07;3.15;;;1.92;;
20567;SDS011;10442;49.932;11.592;2023-11-19T11:36:31;1.20;;;1.02;;
20567;SDS011;10442;49.932;11.592;2023-11-19T11:39:08;1.00;;;1.00;;
20567;SDS011;10442;49.932;11.592;2023-11-19T11:41:36;2.15;;;1.30;;
20567;SDS011;10442;49.932;11.592;2023-11-19T11:44:04;1.23;;;1.00;;
20567;SDS011;10442;49.932;11.592;2023-11-19T11:49:00;5.05;;;1.10;;
20567;SDS011;10442;49.932;11.592;2023-11-19T11:54:26;1.60;;;0.90;;
20567;SDS011;10442;49.932;11.592;2023-11-19T11:57:06;1.38;;;1.27;;
20567;SDS011;10442;49.932;11.592;2023-11-19T11:59:44;1.75;;;1.60;;
20567;SDS011;10442;49.932;11.592;2023-11-19T12:02:15;2.78;;;1.90;;
20567;SDS011;10442;49.932;11.592;2023-11-19T12:04:48;2.08;;;1.63;;
20567;SDS011;10442;49.932;11.592;2023-11-19T12:07:21;1.20;;;1.10;;
20567;SDS011;10442;49.932;11.592;2023-11-19T12:10:12;2.13;;;1.30;;
20567;SDS011;10442;49.932;11.592;2023-11-19T12:12:39;1.67;;;1.55;;
20567;SDS011;10442;49.932;11.592;2023-11-19T12:15:09;1.48;;;1.38;;
20567;SDS011;10442;49.932;11.592;2023-11-19T12:17:41;3.95;;;2.50;;
20567;SDS011;10442;49.932;11.592;2023-11-19T12:20:13;2.05;;;1.27;;
20567;SDS011;10442;49.932;11.592;2023-11-19T12:22:41;1.58;;;1.42;;
20567;SDS011;10442;49.932;11.592;2023-11-19T12:25:10;2.75;;;1.50;;
20567;SDS011;10442;49.932;11.592;2023-11-19T12:27:39;1.80;;;1.30;;
20567;SDS011;10442;49.932;11.592;2023-11-19T12:30:08;1.88;;;1.58;;
20567;SDS011;10442;49.932;11.592;2023-11-19T12:32:46;1.40;;;1.30;;
20567;SDS011;10442;49.932;11.592;2023-11-19T12:35:13;5.15;;;1.52;;
20567;SDS011;10442;49.932;11.592;2023-11-19T12:40:13;1.35;;;1.25;;
20567;SDS011;10442;49.932;11.592;2023-11-19T12:42:43;1.70;;;1.40;;
20567;SDS011;10442;49.932;11.592;2023-11-19T12:45:15;1.13;;;1.05;;
20567;SDS011;10442;49.932;11.592;2023-11-19T12:47:43;6.55;;;1.17;;
20567;SDS011;10442;49.932;11.592;2023-11-19T12:50:11;1.73;;;1.08;;
20567;SDS011;10442;49.932;11.592;2023-11-19T12:52:39;1.33;;;1.00;;
20567;SDS011;10442;49.932;11.592;2023-11-19T12:57:56;2.38;;;1.50;;
20567;SDS011;10442;49.932;11.592;2023-11-19T13:00:25;2.03;;;1.13;;
20567;SDS011;10442;49.932;11.592;2023-11-19T13:02:55;4.05;;;1.88;;
20567;SDS011;10442;49.932;11.592;2023-11-19T13:05:28;2.45;;;1.20;;
20567;SDS011;10442;49.932;11.592;2023-11-19T13:08:05;1.23;;;1.13;;
20567;SDS011;10442;49.932;11.592;2023-11-19T13:13:15;1.50;;;1.40;;
20567;SDS011;10442;49.932;11.592;2023-11-19T13:15:42;2.50;;;1.95;;
20567;SDS011;10442;49.932;11.592;2023-11-19T13:18:15;6.60;;;2.20;;
20567;SDS011;10442;49.932;11.592;2023-11-19T13:20:43;3.10;;;1.63;;
20567;SDS011;10442;49.932;11.592;2023-11-19T13:23:11;2.75;;;1.42;;
20567;SDS011;10442;49.932;11.592;2023-11-19T13:25:39;2.65;;;1.40;;
20567;SDS011;10442;49.932;11.592;2023-11-19T13:28:07;3.13;;;2.08;;
20567;SDS011;10442;49.932;11.592;2023-11-19T13:30:34;2.22;;;1.10;;
20567;SDS011;10442;49.932;11.592;2023-11-19T13:33:02;7.20;;;1.88;;
20567;SDS011;10442;49.932;11.592;2023-11-19T13:35:29;5.70;;;2.38;;
20567;SDS011;10442;49.932;11.592;2023-11-19T13:37:57;3.38;;;2.22;;
20567;SDS011;10442;49.932;11.592;2023-11-19T13:40:27;3.88;;;2.13;;
20567;SDS011;10442;49.932;11.592;2023-11-19T13:42:55;2.10;;;1.38;;
20567;SDS011;10442;49.932;11.592;2023-11-19T13:45:22;2.47;;;1.67;;
20567;SDS011;10442;49.932;11.592;2023-11-19T13:47:50;4.35;;;1.95;;
20567;SDS011;10442;49.932;11.592;2023-11-19T13:50:18;2.38;;;1.55;;
20567;SDS011;10442;49.932;11.592;2023-11-19T13:52:45;2.17;;;1.98;;
20567;SDS011;10442;49.932;11.592;2023-11-19T13:55:15;2.85;;;1.85;;
20567;SDS011;10442;49.932;11.592;2023-11-19T13:57:43;3.83;;;2.17;;
20567;SDS011;10442;49.932;11.592;2023-11-19T14:00:11;2.30;;;1.25;;
20567;SDS011;10442;49.932;11.592;2023-11-19T14:02:40;2.25;;;2.00;;
20567;SDS011;10442;49.932;11.592;2023-11-19T14:05:09;2.45;;;1.80;;
20567;SDS011;10442;49.932;11.592;2023-11-19T14:07:38;1.60;;;1.50;;
20567;SDS011;10442;49.932;11.592;2023-11-19T14:10:07;2.28;;;1.88;;
20567;SDS011;10442;49.932;11.592;2023-11-19T14:12:38;2.95;;;1.75;;
20567;SDS011;10442;49.932;11.592;2023-11-19T14:15:07;2.22;;;1.90;;
20567;SDS011;10442;49.932;11.592;2023-11-19T14:17:36;2.25;;;1.75;;
20567;SDS011;10442;49.932;11.592;2023-11-19T14:20:03;3.20;;;2.33;;
20567;SDS011;10442;49.932;11.592;2023-11-19T14:22:43;1.98;;;1.75;;
20567;SDS011;10442;49.932;11.592;2023-11-19T14:25:11;1.98;;;1.70;;
20567;SDS011;10442;49.932;11.592;2023-11-19T14:27:39;3.47;;;2.03;;
20567;SDS011;10442;49.932;11.592;2023-11-19T14:30:09;2.88;;;1.67;;
20567;SDS011;10442;49.932;11.592;2023-11-19T14:32:39;5.68;;;2.72;;
20567;SDS011;10442;49.932;11.592;2023-11-19T14:35:07;2.58;;;1.95;;
20567;SDS011;10442;49.932;11.592;2023-11-19T14:37:35;2.03;;;1.67;;
20567;SDS011;10442;49.932;11.592;2023-11-19T14:40:02;4.28;;;1.95;;
20567;SDS011;10442;49.932;11.592;2023-11-19T14:42:32;2.00;;;1.70;;
20567;SDS011;10442;49.932;11.592;2023-11-19T14:44:59;1.95;;;1.50;;
20567;SDS011;10442;49.932;11.592;2023-11-19T14:47:27;6.13;;;1.70;;
20567;SDS011;10442;49.932;11.592;2023-11-19T14:49:56;5.55;;;1.58;;
20567;SDS011;10442;49.932;11.592;2023-11-19T14:52:23;6.00;;;2.15;;
20567;SDS011;10442;49.932;11.592;2023-11-19T14:54:51;1.52;;;1.42;;
20567;SDS011;10442;49.932;11.592;2023-11-19T14:57:21;2.42;;;1.98;;
20567;SDS011;10442;49.932;11.592;2023-11-19T14:59:48;3.38;;;1.60;;
20567;SDS011;10442;49.932;11.592;2023-11-19T15:02:15;2.95;;;1.88;;